sensor_id;sensor_type;location;lat;lon;timestamp;P1;durP1;ratioP1;P2;durP2;ratioP2
35223;SDS011;21367;51.930;8.112;2023-04-06T00:00:39;20.27;;;8.63;;
35223;SDS011;21367;51.930;8.112;2023-04-06T00:05:46;22.98;;;8.57;;
35223;SDS011;21367;51.930;8.112;2023-04-06T00:10:51;22.70;;;8.65;;
35223;SDS011;21367;51.930;8.112;2023-04-06T00:15:55;20.77;;;8.75;;
35223;SDS011;21367;51.930;8.112;2023-04-06T00:21:02;20.35;;;8.68;;
35223;SDS011;21367;51.930;8.112;2023-04-06T00:26:07;16.38;;;8.00;;
35223;SDS011;21367;51.930;8.112;2023-04-06T00:31:13;14.88;;;7.90;;
35223;SDS011;21367;51.930;8.112;2023-04-06T00:36:19;19.75;;;7.80;;
35223;SDS011;21367;51.930;8.112;2023-04-06T00:41:23;15.23;;;7.75;;
35223;SDS011;21367;51.930;8.112;2023-04-06T00:46:27;15.52;;;7.85;;
35223;SDS011;21367;51.930;8.112;2023-04-06T00:51:34;18.45;;;7.70;;
35223;SDS011;21367;51.930;8.112;2023-04-06T00:56:38;21.02;;;7.55;;
35223;SDS011;21367;51.930;8.112;2023-04-06T01:01:42;17.73;;;7.95;;
35223;SDS011;21367;51.930;8.112;2023-04-06T01:07:04;15.63;;;7.82;;
35223;SDS011;21367;51.930;8.112;2023-04-06T01:12:16;17.35;;;7.97;;
35223;SDS011;21367;51.930;8.112;2023-04-06T01:17:21;15.80;;;8.25;;
35223;SDS011;21367;51.930;8.112;2023-04-06T01:22:28;24.92;;;8.25;;
35223;SDS011;21367;51.930;8.112;2023-04-06T01:27:36;18.98;;;9.07;;
35223;SDS011;21367;51.930;8.112;2023-04-06T01:32:40;31.17;;;8.38;;
35223;SDS011;21367;51.930;8.112;2023-04-06T01:37:50;26.80;;;8.88;;
35223;SDS011;21367;51.930;8.112;2023-04-06T01:43:02;17.30;;;8.82;;
35223;SDS011;21367;51.930;8.112;2023-04-06T01:48:11;27.00;;;9.50;;
35223;SDS011;21367;51.930;8.112;2023-04-06T01:53:19;23.88;;;10.80;;
35223;SDS011;21367;51.930;8.112;2023-04-06T01:58:26;21.35;;;9.80;;
35223;SDS011;21367;51.930;8.112;2023-04-06T02:03:31;20.25;;;9.35;;
35223;SDS011;21367;51.930;8.112;2023-04-06T02:08:43;25.42;;;10.55;;
35223;SDS011;21367;51.930;8.112;2023-04-06T02:13:47;24.25;;;10.60;;
35223;SDS011;21367;51.930;8.112;2023-04-06T02:18:52;19.73;;;10.15;;
35223;SDS011;21367;51.930;8.112;2023-04-06T02:23:58;24.33;;;11.18;;
35223;SDS011;21367;51.930;8.112;2023-04-06T02:29:03;21.42;;;9.80;;
35223;SDS011;21367;51.930;8.112;2023-04-06T02:34:07;21.42;;;9.60;;
35223;SDS011;21367;51.930;8.112;2023-04-06T02:39:18;23.27;;;9.93;;
35223;SDS011;21367;51.930;8.112;2023-04-06T02:44:23;22.38;;;9.57;;
35223;SDS011;21367;51.930;8.112;2023-04-06T02:49:28;24.17;;;10.32;;
35223;SDS011;21367;51.930;8.112;2023-04-06T02:54:36;25.00;;;10.43;;
35223;SDS011;21367;51.930;8.112;2023-04-06T02:59:40;21.02;;;9.73;;
35223;SDS011;21367;51.930;8.112;2023-04-06T03:04:50;22.75;;;9.48;;
35223;SDS011;21367;51.930;8.112;2023-04-06T03:10:10;27.42;;;9.40;;
35223;SDS011;21367;51.930;8.112;2023-04-06T03:15:15;20.88;;;10.27;;
35223;SDS011;21367;51.930;8.112;2023-04-06T03:20:24;25.52;;;10.10;;
35223;SDS011;21367;51.930;8.112;2023-04-06T03:25:31;27.67;;;10.85;;
35223;SDS011;21367;51.930;8.112;2023-04-06T03:30:38;30.05;;;9.70;;
35223;SDS011;21367;51.930;8.112;2023-04-06T03:35:43;21.27;;;9.73;;
35223;SDS011;21367;51.930;8.112;2023-04-06T03:40:51;20.90;;;10.30;;
35223;SDS011;21367;51.930;8.112;2023-04-06T03:45:59;27.30;;;10.10;;
35223;SDS011;21367;51.930;8.112;2023-04-06T03:51:04;23.77;;;11.35;;
35223;SDS011;21367;51.930;8.112;2023-04-06T03:56:11;21.27;;;10.45;;
35223;SDS011;21367;51.930;8.112;2023-04-06T04:01:16;23.67;;;11.30;;
35223;SDS011;21367;51.930;8.112;2023-04-06T04:06:20;21.02;;;9.85;;
35223;SDS011;21367;51.930;8.112;2023-04-06T04:11:27;25.52;;;11.23;;
35223;SDS011;21367;51.930;8.112;2023-04-06T04:16:33;22.13;;;10.20;;
35223;SDS011;21367;51.930;8.112;2023-04-06T04:21:42;20.20;;;10.07;;
35223;SDS011;21367;51.930;8.112;2023-04-06T04:26:55;21.75;;;9.38;;
35223;SDS011;21367;51.930;8.112;2023-04-06T04:31:59;26.17;;;9.43;;
35223;SDS011;21367;51.930;8.112;2023-04-06T04:37:04;17.83;;;10.32;;
35223;SDS011;21367;51.930;8.112;2023-04-06T04:42:28;27.85;;;10.60;;
35223;SDS011;21367;51.930;8.112;2023-04-06T04:47:34;25.77;;;10.95;;
35223;SDS011;21367;51.930;8.112;2023-04-06T04:52:40;19.88;;;9.90;;
35223;SDS011;21367;51.930;8.112;2023-04-06T04:57:53;22.65;;;10.30;;
35223;SDS011;21367;51.930;8.112;2023-04-06T05:03:17;19.70;;;9.93;;
35223;SDS011;21367;51.930;8.112;2023-04-06T05:08:30;19.98;;;10.00;;
35223;SDS011;21367;51.930;8.112;2023-04-06T05:13:38;31.67;;;9.75;;
35223;SDS011;21367;51.930;8.112;2023-04-06T05:18:48;25.38;;;10.75;;
35223;SDS011;21367;51.930;8.112;2023-04-06T05:23:52;21.58;;;10.07;;
35223;SDS011;21367;51.930;8.112;2023-04-06T05:28:59;22.60;;;10.55;;
35223;SDS011;21367;51.930;8.112;2023-04-06T05:34:07;32.17;;;11.10;;
35223;SDS011;21367;51.930;8.112;2023-04-06T05:39:12;32.80;;;11.15;;
35223;SDS011;21367;51.930;8.112;2023-04-06T05:44:30;20.58;;;9.95;;
35223;SDS011;21367;51.930;8.112;2023-04-06T05:49:42;26.33;;;10.07;;
35223;SDS011;21367;51.930;8.112;2023-04-06T05:54:54;27.30;;;10.90;;
35223;SDS011;21367;51.930;8.112;2023-04-06T06:00:01;25.13;;;10.95;;
35223;SDS011;21367;51.930;8.112;2023-04-06T06:05:21;25.17;;;10.55;;
35223;SDS011;21367;51.930;8.112;2023-04-06T06:10:26;25.00;;;11.48;;
35223;SDS011;21367;51.930;8.112;2023-04-06T06:15:32;21.50;;;10.38;;
35223;SDS011;21367;51.930;8.112;2023-04-06T06:20:36;22.85;;;10.55;;
35223;SDS011;21367;51.930;8.112;2023-04-06T06:25:41;21.30;;;10.63;;
35223;SDS011;21367;51.930;8.112;2023-04-06T06:30:47;24.80;;;10.77;;
35223;SDS011;21367;51.930;8.112;2023-04-06T06:35:55;25.55;;;11.38;;
35223;SDS011;21367;51.930;8.112;2023-04-06T06:41:01;20.85;;;10.00;;
35223;SDS011;21367;51.930;8.112;2023-04-06T06:46:10;30.40;;;10.40;;
35223;SDS011;21367;51.930;8.112;2023-04-06T06:51:15;22.33;;;11.07;;
35223;SDS011;21367;51.930;8.112;2023-04-06T06:56:20;22.55;;;10.27;;
35223;SDS011;21367;51.930;8.112;2023-04-06T07:01:28;22.43;;;9.87;;
35223;SDS011;21367;51.930;8.112;2023-04-06T07:06:32;22.23;;;10.27;;
35223;SDS011;21367;51.930;8.112;2023-04-06T07:11:36;27.73;;;10.57;;
35223;SDS011;21367;51.930;8.112;2023-04-06T07:16:43;28.95;;;10.32;;
35223;SDS011;21367;51.930;8.112;2023-04-06T07:21:49;23.77;;;10.93;;
35223;SDS011;21367;51.930;8.112;2023-04-06T07:26:53;28.42;;;10.88;;
35223;SDS011;21367;51.930;8.112;2023-04-06T07:32:01;26.20;;;10.77;;
35223;SDS011;21367;51.930;8.112;2023-04-06T07:37:06;28.98;;;10.77;;
35223;SDS011;21367;51.930;8.112;2023-04-06T07:42:10;22.00;;;9.93;;
35223;SDS011;21367;51.930;8.112;2023-04-06T07:47:17;19.95;;;9.73;;
35223;SDS011;21367;51.930;8.112;2023-04-06T07:52:21;23.77;;;9.93;;
35223;SDS011;21367;51.930;8.112;2023-04-06T07:57:25;27.77;;;9.40;;
35223;SDS011;21367;51.930;8.112;2023-04-06T08:02:32;26.65;;;9.82;;
35223;SDS011;21367;51.930;8.112;2023-04-06T08:07:36;24.90;;;9.10;;
35223;SDS011;21367;51.930;8.112;2023-04-06T08:12:40;23.63;;;8.55;;
35223;SDS011;21367;51.930;8.112;2023-04-06T08:17:46;23.77;;;8.85;;
35223;SDS011;21367;51.930;8.112;2023-04-06T08:27:53;20.17;;;8.80;;
35223;SDS011;21367;51.930;8.112;2023-04-06T08:33:00;17.73;;;7.72;;
35223;SDS011;21367;51.930;8.112;2023-04-06T08:38:04;18.60;;;8.45;;
35223;SDS011;21367;51.930;8.112;2023-04-06T08:43:09;17.15;;;7.38;;
35223;SDS011;21367;51.930;8.112;2023-04-06T08:48:19;19.40;;;8.00;;
35223;SDS011;21367;51.930;8.112;2023-04-06T08:53:24;20.13;;;8.00;;
35223;SDS011;21367;51.930;8.112;2023-04-06T08:58:31;31.80;;;8.40;;
35223;SDS011;21367;51.930;8.112;2023-04-06T09:03:39;18.90;;;7.30;;
35223;SDS011;21367;51.930;8.112;2023-04-06T09:08:44;16.38;;;8.15;;
35223;SDS011;21367;51.930;8.112;2023-04-06T09:13:48;17.27;;;8.32;;
35223;SDS011;21367;51.930;8.112;2023-04-06T09:24:07;20.98;;;8.38;;
35223;SDS011;21367;51.930;8.112;2023-04-06T09:29:22;18.77;;;8.73;;
35223;SDS011;21367;51.930;8.112;2023-04-06T09:34:30;19.38;;;8.52;;
35223;SDS011;21367;51.930;8.112;2023-04-06T09:39:34;20.65;;;8.95;;
35223;SDS011;21367;51.930;8.112;2023-04-06T09:44:38;18.63;;;8.88;;
35223;SDS011;21367;51.930;8.112;2023-04-06T09:49:45;21.52;;;8.80;;
35223;SDS011;21367;51.930;8.112;2023-04-06T09:54:50;29.42;;;9.50;;
35223;SDS011;21367;51.930;8.112;2023-04-06T09:59:57;17.83;;;9.17;;
35223;SDS011;21367;51.930;8.112;2023-04-06T10:05:13;23.23;;;9.18;;
35223;SDS011;21367;51.930;8.112;2023-04-06T10:15:41;27.30;;;10.77;;
35223;SDS011;21367;51.930;8.112;2023-04-06T10:20:50;20.15;;;10.18;;
35223;SDS011;21367;51.930;8.112;2023-04-06T10:25:58;27.27;;;10.88;;
35223;SDS011;21367;51.930;8.112;2023-04-06T10:31:05;21.17;;;10.63;;
35223;SDS011;21367;51.930;8.112;2023-04-06T10:36:14;30.55;;;11.60;;
35223;SDS011;21367;51.930;8.112;2023-04-06T10:41:19;28.42;;;11.15;;
35223;SDS011;21367;51.930;8.112;2023-04-06T10:46:25;24.63;;;11.77;;
35223;SDS011;21367;51.930;8.112;2023-04-06T10:51:32;22.92;;;11.38;;
35223;SDS011;21367;51.930;8.112;2023-04-06T10:56:40;24.45;;;11.85;;
35223;SDS011;21367;51.930;8.112;2023-04-06T11:01:45;28.00;;;11.07;;
35223;SDS011;21367;51.930;8.112;2023-04-06T11:06:52;25.30;;;12.27;;
35223;SDS011;21367;51.930;8.112;2023-04-06T11:11:58;21.67;;;11.07;;
35223;SDS011;21367;51.930;8.112;2023-04-06T11:17:02;28.02;;;12.50;;
35223;SDS011;21367;51.930;8.112;2023-04-06T11:27:15;25.33;;;12.25;;
35223;SDS011;21367;51.930;8.112;2023-04-06T11:32:21;31.08;;;12.80;;
35223;SDS011;21367;51.930;8.112;2023-04-06T11:37:28;24.05;;;12.77;;
35223;SDS011;21367;51.930;8.112;2023-04-06T11:42:34;20.33;;;10.43;;
35223;SDS011;21367;51.930;8.112;2023-04-06T11:47:38;25.80;;;12.25;;
35223;SDS011;21367;51.930;8.112;2023-04-06T11:52:45;28.45;;;12.18;;
35223;SDS011;21367;51.930;8.112;2023-04-06T11:57:49;27.60;;;12.45;;
35223;SDS011;21367;51.930;8.112;2023-04-06T12:02:53;22.38;;;11.27;;
35223;SDS011;21367;51.930;8.112;2023-04-06T12:08:06;23.73;;;11.90;;
35223;SDS011;21367;51.930;8.112;2023-04-06T12:13:10;25.52;;;12.07;;
35223;SDS011;21367;51.930;8.112;2023-04-06T12:18:14;26.92;;;11.15;;
35223;SDS011;21367;51.930;8.112;2023-04-06T12:23:22;20.83;;;11.75;;
35223;SDS011;21367;51.930;8.112;2023-04-06T12:28:29;25.08;;;13.10;;
35223;SDS011;21367;51.930;8.112;2023-04-06T12:33:34;27.80;;;12.35;;
35223;SDS011;21367;51.930;8.112;2023-04-06T12:38:41;26.40;;;13.27;;
35223;SDS011;21367;51.930;8.112;2023-04-06T12:43:48;29.15;;;13.30;;
35223;SDS011;21367;51.930;8.112;2023-04-06T12:48:52;21.35;;;12.20;;
35223;SDS011;21367;51.930;8.112;2023-04-06T12:54:00;22.97;;;12.07;;
35223;SDS011;21367;51.930;8.112;2023-04-06T12:59:05;22.67;;;12.07;;
35223;SDS011;21367;51.930;8.112;2023-04-06T13:04:09;24.58;;;11.68;;
35223;SDS011;21367;51.930;8.112;2023-04-06T13:09:16;24.92;;;11.95;;
35223;SDS011;21367;51.930;8.112;2023-04-06T13:14:20;23.35;;;11.75;;
35223;SDS011;21367;51.930;8.112;2023-04-06T13:19:24;23.63;;;10.50;;
35223;SDS011;21367;51.930;8.112;2023-04-06T13:24:32;27.42;;;12.75;;
35223;SDS011;21367;51.930;8.112;2023-04-06T13:29:36;23.27;;;12.70;;
35223;SDS011;21367;51.930;8.112;2023-04-06T13:34:42;23.52;;;12.48;;
35223;SDS011;21367;51.930;8.112;2023-04-06T13:39:49;26.95;;;13.30;;
35223;SDS011;21367;51.930;8.112;2023-04-06T13:44:53;24.65;;;12.55;;
35223;SDS011;21367;51.930;8.112;2023-04-06T13:49:57;29.98;;;13.80;;
35223;SDS011;21367;51.930;8.112;2023-04-06T13:55:04;29.55;;;13.57;;
35223;SDS011;21367;51.930;8.112;2023-04-06T14:00:09;27.98;;;13.80;;
35223;SDS011;21367;51.930;8.112;2023-04-06T14:05:15;25.15;;;12.75;;
35223;SDS011;21367;51.930;8.112;2023-04-06T14:10:22;28.70;;;13.30;;
35223;SDS011;21367;51.930;8.112;2023-04-06T14:15:28;30.77;;;14.75;;
35223;SDS011;21367;51.930;8.112;2023-04-06T14:20:32;30.42;;;14.05;;
35223;SDS011;21367;51.930;8.112;2023-04-06T14:25:39;31.50;;;15.00;;
35223;SDS011;21367;51.930;8.112;2023-04-06T14:30:43;29.33;;;14.65;;
35223;SDS011;21367;51.930;8.112;2023-04-06T14:35:47;33.75;;;15.45;;
35223;SDS011;21367;51.930;8.112;2023-04-06T14:40:54;28.67;;;14.25;;
35223;SDS011;21367;51.930;8.112;2023-04-06T14:45:59;28.27;;;14.68;;
35223;SDS011;21367;51.930;8.112;2023-04-06T14:51:03;30.17;;;14.27;;
35223;SDS011;21367;51.930;8.112;2023-04-06T14:56:11;37.88;;;14.52;;
35223;SDS011;21367;51.930;8.112;2023-04-06T15:01:16;33.15;;;15.57;;
35223;SDS011;21367;51.930;8.112;2023-04-06T15:06:21;29.42;;;14.30;;
35223;SDS011;21367;51.930;8.112;2023-04-06T15:11:28;34.05;;;14.60;;
35223;SDS011;21367;51.930;8.112;2023-04-06T15:16:32;27.20;;;13.68;;
35223;SDS011;21367;51.930;8.112;2023-04-06T15:21:36;34.05;;;15.35;;
35223;SDS011;21367;51.930;8.112;2023-04-06T15:26:45;31.08;;;15.57;;
35223;SDS011;21367;51.930;8.112;2023-04-06T15:31:50;31.30;;;14.32;;
35223;SDS011;21367;51.930;8.112;2023-04-06T15:36:54;33.15;;;14.35;;
35223;SDS011;21367;51.930;8.112;2023-04-06T15:42:03;25.67;;;13.35;;
35223;SDS011;21367;51.930;8.112;2023-04-06T15:47:07;31.42;;;12.95;;
35223;SDS011;21367;51.930;8.112;2023-04-06T15:52:11;28.10;;;13.23;;
35223;SDS011;21367;51.930;8.112;2023-04-06T15:57:17;25.52;;;12.32;;
35223;SDS011;21367;51.930;8.112;2023-04-06T16:02:22;31.10;;;12.40;;
35223;SDS011;21367;51.930;8.112;2023-04-06T16:07:26;29.95;;;12.50;;
35223;SDS011;21367;51.930;8.112;2023-04-06T16:12:33;27.73;;;13.73;;
35223;SDS011;21367;51.930;8.112;2023-04-06T16:17:37;27.80;;;12.57;;
35223;SDS011;21367;51.930;8.112;2023-04-06T16:22:42;24.25;;;12.48;;
35223;SDS011;21367;51.930;8.112;2023-04-06T16:27:50;22.90;;;11.55;;
35223;SDS011;21367;51.930;8.112;2023-04-06T16:32:54;29.92;;;12.70;;
35223;SDS011;21367;51.930;8.112;2023-04-06T16:37:58;25.10;;;11.70;;
35223;SDS011;21367;51.930;8.112;2023-04-06T16:43:06;23.73;;;12.45;;
35223;SDS011;21367;51.930;8.112;2023-04-06T16:48:10;20.60;;;11.73;;
35223;SDS011;21367;51.930;8.112;2023-04-06T16:53:14;24.08;;;11.98;;
35223;SDS011;21367;51.930;8.112;2023-04-06T16:58:21;21.98;;;11.57;;
35223;SDS011;21367;51.930;8.112;2023-04-06T17:03:25;22.77;;;10.45;;
35223;SDS011;21367;51.930;8.112;2023-04-06T17:08:29;21.10;;;10.48;;
35223;SDS011;21367;51.930;8.112;2023-04-06T17:13:36;17.70;;;9.50;;
35223;SDS011;21367;51.930;8.112;2023-04-06T17:18:40;22.38;;;9.00;;
35223;SDS011;21367;51.930;8.112;2023-04-06T17:23:45;18.85;;;8.68;;
35223;SDS011;21367;51.930;8.112;2023-04-06T17:28:52;23.30;;;8.27;;
35223;SDS011;21367;51.930;8.112;2023-04-06T17:33:56;18.52;;;9.40;;
35223;SDS011;21367;51.930;8.112;2023-04-06T17:39:00;16.73;;;9.02;;
35223;SDS011;21367;51.930;8.112;2023-04-06T17:44:07;18.10;;;9.45;;
35223;SDS011;21367;51.930;8.112;2023-04-06T17:49:11;25.55;;;9.68;;
35223;SDS011;21367;51.930;8.112;2023-04-06T17:54:15;18.92;;;10.30;;
35223;SDS011;21367;51.930;8.112;2023-04-06T17:59:22;21.52;;;11.30;;
35223;SDS011;21367;51.930;8.112;2023-04-06T18:04:26;21.90;;;10.30;;
35223;SDS011;21367;51.930;8.112;2023-04-06T18:09:31;20.90;;;9.32;;
35223;SDS011;21367;51.930;8.112;2023-04-06T18:14:40;27.65;;;13.60;;
35223;SDS011;21367;51.930;8.112;2023-04-06T18:19:45;26.65;;;11.73;;
35223;SDS011;21367;51.930;8.112;2023-04-06T18:24:49;20.17;;;11.50;;
35223;SDS011;21367;51.930;8.112;2023-04-06T18:29:56;23.88;;;11.95;;
35223;SDS011;21367;51.930;8.112;2023-04-06T18:35:01;25.55;;;12.00;;
35223;SDS011;21367;51.930;8.112;2023-04-06T18:40:08;22.02;;;10.63;;
35223;SDS011;21367;51.930;8.112;2023-04-06T18:45:37;23.05;;;11.20;;
35223;SDS011;21367;51.930;8.112;2023-04-06T18:50:50;27.17;;;13.00;;
35223;SDS011;21367;51.930;8.112;2023-04-06T18:55:57;27.73;;;12.70;;
35223;SDS011;21367;51.930;8.112;2023-04-06T19:01:06;23.88;;;9.43;;
35223;SDS011;21367;51.930;8.112;2023-04-06T19:06:13;23.48;;;11.48;;
35223;SDS011;21367;51.930;8.112;2023-04-06T19:11:17;27.33;;;11.25;;
35223;SDS011;21367;51.930;8.112;2023-04-06T19:16:25;17.83;;;9.82;;
35223;SDS011;21367;51.930;8.112;2023-04-06T19:21:29;21.20;;;10.52;;
35223;SDS011;21367;51.930;8.112;2023-04-06T19:26:34;24.25;;;10.70;;
35223;SDS011;21367;51.930;8.112;2023-04-06T19:31:40;19.92;;;9.65;;
35223;SDS011;21367;51.930;8.112;2023-04-06T19:36:45;20.13;;;9.77;;
35223;SDS011;21367;51.930;8.112;2023-04-06T19:41:49;25.98;;;9.60;;
35223;SDS011;21367;51.930;8.112;2023-04-06T19:46:56;22.05;;;10.60;;
35223;SDS011;21367;51.930;8.112;2023-04-06T19:52:00;18.38;;;9.63;;
35223;SDS011;21367;51.930;8.112;2023-04-06T19:57:04;20.15;;;10.20;;
35223;SDS011;21367;51.930;8.112;2023-04-06T20:02:13;25.25;;;11.15;;
35223;SDS011;21367;51.930;8.112;2023-04-06T20:07:17;19.90;;;11.07;;
35223;SDS011;21367;51.930;8.112;2023-04-06T20:12:22;23.23;;;11.45;;
35223;SDS011;21367;51.930;8.112;2023-04-06T20:17:29;30.98;;;11.65;;
35223;SDS011;21367;51.930;8.112;2023-04-06T20:22:35;25.27;;;12.60;;
35223;SDS011;21367;51.930;8.112;2023-04-06T20:27:39;30.10;;;13.07;;
35223;SDS011;21367;51.930;8.112;2023-04-06T20:32:47;28.33;;;12.98;;
35223;SDS011;21367;51.930;8.112;2023-04-06T20:37:51;24.40;;;12.32;;
35223;SDS011;21367;51.930;8.112;2023-04-06T20:42:56;25.58;;;13.15;;
35223;SDS011;21367;51.930;8.112;2023-04-06T20:48:03;27.40;;;13.90;;
35223;SDS011;21367;51.930;8.112;2023-04-06T20:53:08;27.25;;;12.70;;
35223;SDS011;21367;51.930;8.112;2023-04-06T20:58:13;28.45;;;13.30;;
35223;SDS011;21367;51.930;8.112;2023-04-06T21:03:22;26.38;;;13.30;;
35223;SDS011;21367;51.930;8.112;2023-04-06T21:08:29;26.52;;;13.88;;
35223;SDS011;21367;51.930;8.112;2023-04-06T21:13:33;28.95;;;14.73;;
35223;SDS011;21367;51.930;8.112;2023-04-06T21:18:40;29.83;;;13.80;;
35223;SDS011;21367;51.930;8.112;2023-04-06T21:23:50;27.17;;;13.65;;
35223;SDS011;21367;51.930;8.112;2023-04-06T21:29:04;27.15;;;14.73;;
35223;SDS011;21367;51.930;8.112;2023-04-06T21:34:45;34.63;;;15.40;;
35223;SDS011;21367;51.930;8.112;2023-04-06T21:39:56;27.17;;;14.43;;
35223;SDS011;21367;51.930;8.112;2023-04-06T21:45:02;33.65;;;15.27;;
35223;SDS011;21367;51.930;8.112;2023-04-06T21:50:18;30.70;;;14.85;;
35223;SDS011;21367;51.930;8.112;2023-04-06T21:55:28;28.52;;;15.38;;
35223;SDS011;21367;51.930;8.112;2023-04-06T22:00:34;28.92;;;15.52;;
35223;SDS011;21367;51.930;8.112;2023-04-06T22:10:49;27.08;;;13.68;;
35223;SDS011;21367;51.930;8.112;2023-04-06T22:16:13;25.42;;;13.70;;
35223;SDS011;21367;51.930;8.112;2023-04-06T22:21:21;26.50;;;14.20;;
35223;SDS011;21367;51.930;8.112;2023-04-06T22:26:30;29.60;;;14.23;;
35223;SDS011;21367;51.930;8.112;2023-04-06T22:31:35;27.55;;;14.07;;
35223;SDS011;21367;51.930;8.112;2023-04-06T22:36:49;28.13;;;14.48;;
35223;SDS011;21367;51.930;8.112;2023-04-06T22:41:53;25.60;;;13.73;;
35223;SDS011;21367;51.930;8.112;2023-04-06T22:46:58;28.02;;;13.07;;
35223;SDS011;21367;51.930;8.112;2023-04-06T22:52:07;26.38;;;14.40;;
35223;SDS011;21367;51.930;8.112;2023-04-06T22:57:11;30.05;;;13.90;;
35223;SDS011;21367;51.930;8.112;2023-04-06T23:02:15;29.52;;;13.52;;
35223;SDS011;21367;51.930;8.112;2023-04-06T23:13:02;25.13;;;13.43;;
35223;SDS011;21367;51.930;8.112;2023-04-06T23:18:07;30.27;;;14.48;;
35223;SDS011;21367;51.930;8.112;2023-04-06T23:23:11;27.05;;;13.82;;
35223;SDS011;21367;51.930;8.112;2023-04-06T23:28:20;32.45;;;14.63;;
35223;SDS011;21367;51.930;8.112;2023-04-06T23:33:24;23.60;;;12.82;;
35223;SDS011;21367;51.930;8.112;2023-04-06T23:38:28;26.33;;;13.30;;
35223;SDS011;21367;51.930;8.112;2023-04-06T23:43:35;26.33;;;14.23;;
35223;SDS011;21367;51.930;8.112;2023-04-06T23:48:40;31.10;;;16.73;;
35223;SDS011;21367;51.930;8.112;2023-04-06T23:53:44;29.75;;;14.38;;
35223;SDS011;21367;51.930;8.112;2023-04-06T23:58:51;28.17;;;14.13;;
